Time;durP1;ratioP1;P1;durP2;ratioP2;P2;SDS_P1;SDS_P2;PMS_P1;PMS_P2;Temp;Humidity;BMP_temperature;BMP_pressure;BME280_temperature;BME280_humidity;BME280_pressure;Samples;Min_cycle;Max_cycle;Signal;HPM_P1;HPM_P2
2023/05/19 00:00:06;;;;;;;0.50;0.40;;;8.90;99.90;;;;;;5115887;28;20188;-80
2023/05/19 00:02:34;;;;;;;0.50;0.40;;;8.90;99.90;;;;;;5114810;28;20204;-78
2023/05/19 00:05:03;;;;;;;0.50;0.40;;;8.90;99.90;;;;;;5115344;28;20196;-80
2023/05/19 00:07:32;;;;;;;0.50;0.40;;;8.90;99.90;;;;;;5115257;28;20205;-79
2023/05/19 00:09:59;;;;;;;0.50;0.40;;;8.80;99.90;;;;;;5115309;28;20273;-80
2023/05/19 00:12:26;;;;;;;0.50;0.40;;;8.80;99.90;;;;;;5114348;28;20311;-81
2023/05/19 00:14:54;;;;;;;0.50;0.40;;;8.80;99.90;;;;;;5115316;28;20196;-81
2023/05/19 00:17:21;;;;;;;0.50;0.40;;;8.70;99.90;;;;;;5114246;28;20280;-81
2023/05/19 00:19:48;;;;;;;0.50;0.40;;;8.70;99.90;;;;;;5115403;28;20201;-80
2023/05/19 00:22:17;;;;;;;0.50;0.40;;;8.70;99.90;;;;;;5115010;28;20197;-80
2023/05/19 00:24:43;;;;;;;0.50;0.40;;;8.70;99.90;;;;;;5106722;28;20296;-81
2023/05/19 00:27:10;;;;;;;0.50;0.40;;;8.60;99.90;;;;;;5115179;28;20742;-81
2023/05/19 00:29:37;;;;;;;0.50;0.40;;;8.60;99.90;;;;;;5114933;28;20220;-81
2023/05/19 00:32:04;;;;;;;0.50;0.40;;;8.50;99.90;;;;;;5115210;28;20680;-80
2023/05/19 00:34:31;;;;;;;1.80;1.70;;;8.40;99.90;;;;;;5115263;28;20275;-79
2023/05/19 00:36:58;;;;;;;0.50;0.40;;;8.40;99.90;;;;;;5114699;28;20290;-79
2023/05/19 00:39:26;;;;;;;0.50;0.40;;;8.40;99.90;;;;;;5115027;28;20227;-80
2023/05/19 00:41:53;;;;;;;0.50;0.50;;;8.40;99.90;;;;;;5115128;28;20219;-81
2023/05/19 00:44:20;;;;;;;0.50;0.40;;;8.30;99.90;;;;;;5114981;28;20287;-80
2023/05/19 00:46:46;;;;;;;0.50;0.40;;;8.30;99.90;;;;;;5115172;28;20220;-80
2023/05/19 00:49:13;;;;;;;0.50;0.40;;;8.30;99.90;;;;;;5114737;28;20280;-80
2023/05/19 00:51:41;;;;;;;0.50;0.40;;;8.30;99.90;;;;;;5114878;28;20300;-80
2023/05/19 00:54:08;;;;;;;0.50;0.40;;;8.30;99.90;;;;;;5114406;28;20201;-82
2023/05/19 00:56:36;;;;;;;0.50;0.40;;;8.20;99.90;;;;;;5114410;28;20196;-81
2023/05/19 00:59:04;;;;;;;0.50;0.40;;;8.20;99.90;;;;;;5114812;28;20220;-80
2023/05/19 01:01:31;;;;;;;0.50;0.40;;;8.10;99.90;;;;;;5114395;28;20203;-79
2023/05/19 01:03:58;;;;;;;0.50;0.40;;;8.10;99.90;;;;;;5114513;28;20295;-82
2023/05/19 01:06:26;;;;;;;0.50;0.50;;;8.10;99.90;;;;;;5114551;28;20283;-80
2023/05/19 01:08:54;;;;;;;0.50;0.40;;;8.10;99.90;;;;;;5114312;28;20691;-80
2023/05/19 01:11:21;;;;;;;0.50;0.40;;;8.00;99.90;;;;;;5114398;28;20303;-81
2023/05/19 01:13:50;;;;;;;0.50;0.40;;;8.00;99.90;;;;;;5114169;28;20566;-80
2023/05/19 01:16:24;;;;;;;0.50;0.50;;;7.90;99.90;;;;;;5114115;28;20197;-81
2023/05/19 01:19:00;;;;;;;0.50;0.40;;;7.90;99.90;;;;;;5114404;28;20682;-81
2023/05/19 01:21:52;;;;;;;0.60;0.60;;;7.90;99.90;;;;;;5114157;28;20278;-81
2023/05/19 01:24:34;;;;;;;0.50;0.40;;;7.80;99.90;;;;;;5114134;28;20223;-80
2023/05/19 01:27:26;;;;;;;0.50;0.40;;;7.80;99.90;;;;;;5107602;28;20200;-80
2023/05/19 01:30:22;;;;;;;0.50;0.40;;;7.80;99.90;;;;;;5106694;28;20212;-82
2023/05/19 01:32:52;;;;;;;0.50;0.40;;;7.70;99.90;;;;;;5105806;28;20197;-81
2023/05/19 01:35:19;;;;;;;0.50;0.40;;;7.70;99.90;;;;;;5114709;28;20197;-80
2023/05/19 01:37:47;;;;;;;0.50;0.40;;;7.70;99.90;;;;;;5114029;28;20299;-82
2023/05/19 01:40:14;;;;;;;0.50;0.40;;;7.60;99.90;;;;;;5114710;28;20197;-81
2023/05/19 01:42:43;;;;;;;0.50;0.40;;;7.70;99.90;;;;;;5114478;28;20562;-81
2023/05/19 01:45:11;;;;;;;0.50;0.40;;;7.60;99.90;;;;;;5114224;28;20245;-81
2023/05/19 01:47:42;;;;;;;0.50;0.40;;;7.60;99.90;;;;;;5114509;28;20235;-80
2023/05/19 01:50:10;;;;;;;0.50;0.40;;;7.50;99.90;;;;;;5114504;28;20697;-81
2023/05/19 01:52:37;;;;;;;0.50;0.40;;;7.50;99.90;;;;;;5113935;28;20204;-81
2023/05/19 01:55:04;;;;;;;0.50;0.40;;;7.50;99.90;;;;;;5114293;28;20228;-79
2023/05/19 01:57:38;;;;;;;0.50;0.40;;;7.50;99.90;;;;;;5114131;28;20288;-79
2023/05/19 02:00:11;;;;;;;0.50;0.40;;;7.50;99.90;;;;;;5114193;28;20821;-79
2023/05/19 02:02:53;;;;;;;0.50;0.40;;;7.50;99.90;;;;;;5114111;28;20291;-80
2023/05/19 02:05:29;;;;;;;0.50;0.40;;;7.40;99.90;;;;;;5114580;28;20202;-81
2023/05/19 02:08:02;;;;;;;0.50;0.40;;;7.40;99.90;;;;;;5114114;28;20224;-80
2023/05/19 02:10:32;;;;;;;0.50;0.40;;;7.40;99.90;;;;;;5114236;28;20223;-79
2023/05/19 02:13:04;;;;;;;0.50;0.40;;;7.30;99.90;;;;;;5114581;28;20571;-79
2023/05/19 02:15:38;;;;;;;0.50;0.40;;;7.30;99.90;;;;;;5114451;28;20208;-81
2023/05/19 02:18:10;;;;;;;0.50;0.40;;;7.30;99.90;;;;;;5113917;28;20222;-81
2023/05/19 02:20:37;;;;;;;0.50;0.40;;;7.20;99.90;;;;;;5106683;28;20189;-79
2023/05/19 02:23:04;;;;;;;0.50;0.40;;;7.20;99.90;;;;;;5114497;28;20207;-80
2023/05/19 02:25:31;;;;;;;0.50;0.40;;;7.10;99.90;;;;;;5114397;28;20292;-81
2023/05/19 02:27:58;;;;;;;0.50;0.40;;;7.10;99.90;;;;;;5114677;28;20756;-79
2023/05/19 02:30:25;;;;;;;0.50;0.40;;;7.20;99.90;;;;;;5114678;28;20303;-79
2023/05/19 02:32:53;;;;;;;0.50;0.40;;;7.20;99.90;;;;;;5105689;28;20604;-79
2023/05/19 02:35:21;;;;;;;0.60;0.60;;;7.20;99.90;;;;;;5117048;28;20197;-80
2023/05/19 02:37:48;;;;;;;0.50;0.40;;;7.10;99.90;;;;;;5117620;28;20682;-80
2023/05/19 02:40:15;;;;;;;0.50;0.40;;;7.20;99.90;;;;;;5118052;28;20271;-82
2023/05/19 02:42:42;;;;;;;0.50;0.40;;;7.20;99.90;;;;;;5116999;28;20236;-81
2023/05/19 02:45:09;;;;;;;0.50;0.43;;;7.20;99.90;;;;;;5120012;28;20276;-79
2023/05/19 02:47:37;;;;;;;0.50;0.40;;;7.20;99.90;;;;;;5120796;28;20220;-81
2023/05/19 02:50:04;;;;;;;0.50;0.40;;;7.20;99.90;;;;;;5119442;28;20200;-80
2023/05/19 02:52:32;;;;;;;0.50;0.50;;;7.20;99.90;;;;;;5116681;28;20710;-79
2023/05/19 02:54:59;;;;;;;0.50;0.40;;;7.10;99.90;;;;;;5116996;28;20279;-80
2023/05/19 02:57:26;;;;;;;0.50;0.40;;;7.10;99.90;;;;;;5117086;28;20552;-80
2023/05/19 02:59:53;;;;;;;0.50;0.40;;;7.10;99.90;;;;;;5108597;28;20197;-81
2023/05/19 03:02:20;;;;;;;0.50;0.40;;;7.10;99.90;;;;;;5117215;28;20220;-80
2023/05/19 03:04:47;;;;;;;0.50;0.47;;;7.00;99.90;;;;;;5117037;28;20196;-80
2023/05/19 03:07:14;;;;;;;0.50;0.40;;;7.00;99.90;;;;;;5117768;28;20256;-80
2023/05/19 03:09:42;;;;;;;0.50;0.40;;;6.90;99.90;;;;;;5116726;28;20200;-81
2023/05/19 03:12:09;;;;;;;0.50;0.40;;;6.90;99.90;;;;;;5116323;28;20216;-80
2023/05/19 03:14:37;;;;;;;0.50;0.40;;;6.90;99.90;;;;;;5117053;28;20238;-80
2023/05/19 03:17:06;;;;;;;0.50;0.40;;;6.90;99.90;;;;;;5117106;28;20197;-80
2023/05/19 03:19:33;;;;;;;0.50;0.40;;;6.80;99.90;;;;;;5116502;28;20231;-79
2023/05/19 03:22:00;;;;;;;0.50;0.40;;;6.80;99.90;;;;;;5117220;28;20196;-80
2023/05/19 03:24:26;;;;;;;0.50;0.40;;;6.80;99.90;;;;;;5116885;28;20192;-78
2023/05/19 03:26:55;;;;;;;0.50;0.40;;;6.80;99.90;;;;;;5117049;28;20221;-80
2023/05/19 03:29:22;;;;;;;0.50;0.40;;;6.80;99.90;;;;;;5107801;28;20299;-80
2023/05/19 03:31:50;;;;;;;0.50;0.40;;;6.80;99.90;;;;;;5116156;28;20220;-82
2023/05/19 03:34:17;;;;;;;0.50;0.40;;;6.80;99.90;;;;;;5115961;28;20271;-81
2023/05/19 03:36:44;;;;;;;0.50;0.40;;;6.90;99.90;;;;;;5115751;28;20194;-82
2023/05/19 03:39:11;;;;;;;0.50;0.40;;;6.90;99.90;;;;;;5115587;28;20219;-81
2023/05/19 03:41:37;;;;;;;0.50;0.40;;;6.90;99.90;;;;;;5115924;28;20216;-80
2023/05/19 03:44:06;;;;;;;4.72;1.90;;;7.00;99.90;;;;;;5115761;28;20192;-82
2023/05/19 03:46:33;;;;;;;0.50;0.45;;;7.00;99.90;;;;;;5116076;28;20224;-80
2023/05/19 03:48:59;;;;;;;0.50;0.45;;;7.10;99.90;;;;;;5116274;28;20223;-80
2023/05/19 03:51:27;;;;;;;0.50;0.40;;;7.10;99.90;;;;;;5116674;28;20299;-79
2023/05/19 03:53:54;;;;;;;0.50;0.40;;;7.00;99.90;;;;;;5115499;28;20184;-80
2023/05/19 03:56:23;;;;;;;0.50;0.40;;;7.10;99.90;;;;;;5115503;28;20197;-82
2023/05/19 03:58:50;;;;;;;0.50;0.40;;;7.10;99.90;;;;;;5116023;28;20590;-81
2023/05/19 04:01:18;;;;;;;0.50;0.40;;;7.10;99.90;;;;;;5115981;28;20189;-81
2023/05/19 04:03:45;;;;;;;0.50;0.40;;;7.10;99.90;;;;;;5115914;28;20223;-80
2023/05/19 04:06:12;;;;;;;0.50;0.40;;;7.10;99.90;;;;;;5116508;28;20188;-78
2023/05/19 04:08:39;;;;;;;0.50;0.40;;;7.20;99.90;;;;;;5116511;28;20209;-80
2023/05/19 04:11:06;;;;;;;0.50;0.40;;;7.20;99.90;;;;;;5127367;28;20284;-80
2023/05/19 04:13:33;;;;;;;0.50;0.40;;;7.30;99.90;;;;;;5133320;28;20216;-78
2023/05/19 04:16:00;;;;;;;0.55;0.52;;;7.30;99.90;;;;;;5132648;28;20216;-78
2023/05/19 04:18:28;;;;;;;0.50;0.40;;;7.40;99.90;;;;;;5133810;28;20213;-80
2023/05/19 04:20:55;;;;;;;0.50;0.40;;;7.40;99.90;;;;;;5133385;28;20189;-79
2023/05/19 04:23:22;;;;;;;1.08;1.08;;;7.40;99.90;;;;;;5131410;28;20196;-80
2023/05/19 04:25:49;;;;;;;0.60;0.60;;;7.40;99.90;;;;;;5129266;28;20216;-80
2023/05/19 04:28:16;;;;;;;0.50;0.40;;;7.50;99.90;;;;;;5120507;28;20377;-76
2023/05/19 04:30:45;;;;;;;0.50;0.40;;;7.60;99.90;;;;;;5115354;28;20228;-80
2023/05/19 04:33:12;;;;;;;0.50;0.47;;;7.60;99.90;;;;;;5115609;28;20193;-79
2023/05/19 04:35:42;;;;;;;0.50;0.40;;;7.60;99.90;;;;;;5115096;28;20655;-80
2023/05/19 04:38:10;;;;;;;0.50;0.40;;;7.70;99.90;;;;;;5115069;28;20213;-79
2023/05/19 04:40:39;;;;;;;0.50;0.40;;;7.70;99.90;;;;;;5121650;28;20205;-80
2023/05/19 04:43:06;;;;;;;0.50;0.40;;;7.60;99.90;;;;;;5128038;28;20559;-81
2023/05/19 04:45:33;;;;;;;0.50;0.40;;;7.70;99.90;;;;;;5127716;28;20199;-80
2023/05/19 04:48:00;;;;;;;0.50;0.40;;;7.70;99.90;;;;;;5124251;28;20324;-80
2023/05/19 04:50:29;;;;;;;0.50;0.40;;;7.70;99.90;;;;;;5125057;28;20218;-81
2023/05/19 04:52:58;;;;;;;0.50;0.40;;;7.80;99.90;;;;;;5121026;28;20276;-80
2023/05/19 04:55:24;;;;;;;0.50;0.40;;;7.80;99.90;;;;;;5120570;28;20231;-80
2023/05/19 04:57:51;;;;;;;0.50;0.50;;;7.80;99.90;;;;;;5121598;28;20219;-79
2023/05/19 05:00:19;;;;;;;0.50;0.50;;;7.80;99.90;;;;;;5115166;28;20275;-80
2023/05/19 05:02:47;;;;;;;0.50;0.40;;;7.90;99.90;;;;;;5114484;28;20281;-81
2023/05/19 05:05:14;;;;;;;0.50;0.50;;;8.00;99.90;;;;;;5114546;28;20228;-81
2023/05/19 05:07:41;;;;;;;0.50;0.50;;;7.90;99.90;;;;;;5114849;28;20208;-79
2023/05/19 05:10:10;;;;;;;0.55;0.55;;;8.00;99.90;;;;;;5116727;28;20184;-81
2023/05/19 05:12:38;;;;;;;0.50;0.40;;;8.10;99.90;;;;;;5114645;28;20219;-79
2023/05/19 05:15:06;;;;;;;0.50;0.45;;;8.20;99.90;;;;;;5114994;28;20224;-79
2023/05/19 05:17:34;;;;;;;0.50;0.40;;;8.30;99.90;;;;;;5113717;28;20199;-78
2023/05/19 05:20:02;;;;;;;0.50;0.40;;;8.40;99.90;;;;;;5110612;28;20188;-81
2023/05/19 05:22:29;;;;;;;1.23;1.23;;;8.50;99.90;;;;;;5129010;28;20184;-80
2023/05/19 05:24:56;;;;;;;0.50;0.40;;;8.70;99.90;;;;;;5127097;28;20236;-79
2023/05/19 05:27:24;;;;;;;0.50;0.50;;;8.80;99.90;;;;;;5132782;28;20252;-79
2023/05/19 05:29:52;;;;;;;0.50;0.40;;;9.00;99.90;;;;;;5126880;28;20188;-84
2023/05/19 05:32:19;;;;;;;0.50;0.40;;;9.20;99.90;;;;;;5123149;28;20211;-83
2023/05/19 05:34:46;;;;;;;0.50;0.40;;;9.30;99.90;;;;;;5128610;28;20287;-82
2023/05/19 05:37:13;;;;;;;0.50;0.40;;;9.40;99.90;;;;;;5135383;28;20193;-83
2023/05/19 05:39:39;;;;;;;0.50;0.50;;;9.60;99.90;;;;;;5131947;28;20223;-80
2023/05/19 05:42:07;;;;;;;0.50;0.40;;;9.70;99.90;;;;;;5130488;28;20219;-80
2023/05/19 05:44:36;;;;;;;0.80;0.80;;;9.80;99.90;;;;;;5131614;28;20186;-81
2023/05/19 05:47:03;;;;;;;0.60;0.60;;;9.90;99.90;;;;;;5125533;28;20212;-80
2023/05/19 05:49:31;;;;;;;0.50;0.40;;;9.90;99.90;;;;;;5116124;28;20222;-80
2023/05/19 05:51:58;;;;;;;0.50;0.40;;;10.10;99.90;;;;;;5115590;28;20231;-78
2023/05/19 05:54:25;;;;;;;0.50;0.50;;;10.20;99.90;;;;;;5116260;28;20224;-81
2023/05/19 05:56:53;;;;;;;0.70;0.70;;;10.40;99.90;;;;;;5115596;28;20192;-81
2023/05/19 05:59:20;;;;;;;0.60;0.60;;;10.60;99.90;;;;;;5114937;28;20687;-78
2023/05/19 06:01:48;;;;;;;0.50;0.40;;;10.70;99.90;;;;;;5114942;28;20189;-80
2023/05/19 06:04:15;;;;;;;0.50;0.40;;;10.90;99.90;;;;;;5115083;28;20193;-81
2023/05/19 06:06:41;;;;;;;0.50;0.40;;;11.50;99.90;;;;;;5115738;28;20268;-82
2023/05/19 06:09:08;;;;;;;0.50;0.40;;;12.50;99.90;;;;;;5119694;28;20249;-80
2023/05/19 06:11:35;;;;;;;0.50;0.40;;;13.80;99.90;;;;;;5128023;28;20208;-79
2023/05/19 06:14:03;;;;;;;0.50;0.40;;;15.00;99.90;;;;;;5122317;28;20456;-80
2023/05/19 06:16:29;;;;;;;0.67;0.67;;;16.20;99.90;;;;;;5123468;28;20434;-78
2023/05/19 06:18:58;;;;;;;0.50;0.40;;;17.90;99.90;;;;;;5122662;28;20901;-82
2023/05/19 06:21:25;;;;;;;0.50;0.40;;;19.20;96.30;;;;;;5131740;28;20435;-81
2023/05/19 06:23:52;;;;;;;0.60;0.50;;;20.20;89.10;;;;;;5129828;28;20442;-81
2023/05/19 06:26:19;;;;;;;0.50;0.50;;;20.60;80.10;;;;;;5119798;28;20514;-81
2023/05/19 06:28:46;;;;;;;0.50;0.30;;;20.60;77.70;;;;;;5121896;28;20511;-80
2023/05/19 06:31:13;;;;;;;0.50;0.30;;;21.10;76.60;;;;;;5118969;28;20464;-81
2023/05/19 06:33:40;;;;;;;0.60;0.50;;;21.70;74.60;;;;;;5120717;28;20930;-82
2023/05/19 06:36:09;;;;;;;0.50;0.40;;;22.50;71.90;;;;;;5109782;28;20433;-83
2023/05/19 06:38:36;;;;;;;0.50;0.30;;;23.30;71.80;;;;;;5121064;28;20537;-81
2023/05/19 06:41:05;;;;;;;0.60;0.60;;;24.20;66.80;;;;;;5120541;28;20437;-83
2023/05/19 06:43:32;;;;;;;0.50;0.30;;;24.60;62.60;;;;;;5117707;28;20800;-81
2023/05/19 06:45:59;;;;;;;0.50;0.40;;;24.90;60.30;;;;;;5114662;28;20455;-83
2023/05/19 06:48:26;;;;;;;0.50;0.30;;;24.80;59.10;;;;;;5112318;28;20449;-81
2023/05/19 06:50:53;;;;;;;0.50;0.30;;;24.70;58.60;;;;;;5117770;28;20448;-83
2023/05/19 06:53:21;;;;;;;2.40;1.23;;;24.80;59.00;;;;;;5119079;28;20472;-83
2023/05/19 06:55:49;;;;;;;0.50;0.40;;;25.10;60.10;;;;;;5118727;28;20522;-83
2023/05/19 06:58:16;;;;;;;0.50;0.30;;;25.50;58.60;;;;;;5115972;28;20481;-80
2023/05/19 07:00:43;;;;;;;0.50;0.30;;;26.30;58.10;;;;;;5115777;28;20445;-83
2023/05/19 07:03:10;;;;;;;0.50;0.40;;;27.10;56.00;;;;;;5115755;28;20628;-84
2023/05/19 07:05:37;;;;;;;0.50;0.30;;;27.10;54.90;;;;;;5116684;28;20430;-84
2023/05/19 07:08:05;;;;;;;0.73;0.73;;;27.30;53.50;;;;;;5116356;28;20460;-80
2023/05/19 07:10:33;;;;;;;0.50;0.30;;;27.80;52.70;;;;;;5116585;28;20449;-81
2023/05/19 07:13:00;;;;;;;0.60;0.43;;;28.30;54.20;;;;;;5115773;28;21036;-82
2023/05/19 07:15:27;;;;;;;0.50;0.30;;;29.00;52.50;;;;;;5116743;28;20782;-81
2023/05/19 07:17:54;;;;;;;0.50;0.30;;;28.50;51.10;;;;;;5116299;28;20460;-84
2023/05/19 07:20:21;;;;;;;0.50;0.40;;;28.80;51.00;;;;;;5116193;28;20462;-77
2023/05/19 07:22:47;;;;;;;0.60;0.30;;;29.30;49.70;;;;;;5116027;28;20505;-85
2023/05/19 07:25:14;;;;;;;1.43;0.90;;;28.70;49.10;;;;;;5116275;28;20861;-83
2023/05/19 07:27:42;;;;;;;0.50;0.30;;;28.40;48.90;;;;;;5116126;28;20450;-84
2023/05/19 07:30:10;;;;;;;0.50;0.30;;;28.30;50.20;;;;;;5107981;28;21135;-84
2023/05/19 07:32:37;;;;;;;0.90;0.90;;;27.60;49.90;;;;;;5116072;28;20462;-82
2023/05/19 07:35:06;;;;;;;0.60;0.40;;;27.20;51.60;;;;;;5115794;28;20920;-85
2023/05/19 07:37:33;;;;;;;0.50;0.30;;;27.70;51.90;;;;;;5116812;28;20442;-83
2023/05/19 07:40:00;;;;;;;0.50;0.30;;;27.80;50.00;;;;;;5116463;28;20501;-82
2023/05/19 07:42:26;;;;;;;0.50;0.40;;;27.90;50.40;;;;;;5116146;28;20873;-81
2023/05/19 07:44:55;;;;;;;0.50;0.33;;;28.30;49.50;;;;;;5118825;28;20858;-83
2023/05/19 07:47:21;;;;;;;1.00;1.00;;;28.60;48.90;;;;;;5127990;28;20449;-82
2023/05/19 07:49:48;;;;;;;0.50;0.30;;;28.60;50.00;;;;;;5131133;28;20662;-82
2023/05/19 07:52:17;;;;;;;1.40;1.40;;;28.90;48.30;;;;;;5131489;28;20466;-85
2023/05/19 07:54:43;;;;;;;0.50;0.30;;;28.70;48.50;;;;;;5130213;28;20435;-83
2023/05/19 07:57:10;;;;;;;0.50;0.33;;;28.60;47.70;;;;;;5122876;28;20440;-82
2023/05/19 07:59:37;;;;;;;0.60;0.40;;;28.40;49.30;;;;;;5128516;28;20450;-84
2023/05/19 08:02:05;;;;;;;1.00;0.60;;;28.30;48.00;;;;;;5132170;28;20466;-84
2023/05/19 08:04:32;;;;;;;0.50;0.30;;;28.50;49.10;;;;;;5131929;28;20438;-83
2023/05/19 08:06:59;;;;;;;0.50;0.30;;;28.70;48.90;;;;;;5130004;28;20518;-84
2023/05/19 08:09:26;;;;;;;0.60;0.50;;;28.80;48.20;;;;;;5118016;28;20957;-84
2023/05/19 08:11:53;;;;;;;0.50;0.30;;;29.20;47.50;;;;;;5116352;28;20478;-84
2023/05/19 08:14:21;;;;;;;0.50;0.40;;;29.50;49.50;;;;;;5116229;28;20533;-82
2023/05/19 08:16:48;;;;;;;0.50;0.30;;;30.60;47.10;;;;;;5116495;28;20434;-85
2023/05/19 08:19:16;;;;;;;0.50;0.40;;;31.00;47.60;;;;;;5115820;28;20549;-86
2023/05/19 08:21:43;;;;;;;0.50;0.40;;;31.10;45.10;;;;;;5116072;28;20533;-86
2023/05/19 08:24:10;;;;;;;0.50;0.30;;;31.30;45.10;;;;;;5115394;28;20438;-86
2023/05/19 08:26:37;;;;;;;0.50;0.37;;;31.40;44.90;;;;;;5115492;28;20529;-86
2023/05/19 08:29:03;;;;;;;0.50;0.30;;;31.00;45.80;;;;;;5115488;28;20478;-85
2023/05/19 08:31:30;;;;;;;0.60;0.40;;;30.30;44.50;;;;;;5115211;28;20467;-85
2023/05/19 08:33:57;;;;;;;0.50;0.30;;;30.00;45.30;;;;;;5115885;28;20510;-86
2023/05/19 08:36:26;;;;;;;0.50;0.30;;;29.50;46.50;;;;;;5115630;28;20430;-86
2023/05/19 08:38:53;;;;;;;0.50;0.30;;;29.60;48.00;;;;;;5115080;28;20466;-85
2023/05/19 08:41:20;;;;;;;0.50;0.40;;;29.60;47.50;;;;;;5115920;28;20522;-86
2023/05/19 08:43:47;;;;;;;0.50;0.40;;;30.10;46.10;;;;;;5115438;28;20439;-84
2023/05/19 08:46:15;;;;;;;0.50;0.30;;;30.40;46.10;;;;;;5107242;28;20434;-85
2023/05/19 08:48:44;;;;;;;0.50;0.47;;;30.90;44.70;;;;;;5115163;28;20458;-85
2023/05/19 08:51:20;;;;;;;0.50;0.30;;;31.00;43.80;;;;;;5115236;28;20433;-85
2023/05/19 08:53:51;;;;;;;0.50;0.30;;;31.10;43.00;;;;;;5116745;28;20501;-85
2023/05/19 08:56:21;;;;;;;0.50;0.30;;;30.80;45.40;;;;;;5107831;28;20435;-84
2023/05/19 08:58:50;;;;;;;1.80;1.70;;;30.30;43.70;;;;;;5115452;28;20460;-84
2023/05/19 09:01:17;;;;;;;0.50;0.30;;;30.00;44.10;;;;;;5115479;28;20437;-86
2023/05/19 09:03:45;;;;;;;0.90;0.40;;;29.50;43.30;;;;;;5114896;28;20509;-83
2023/05/19 09:06:12;;;;;;;0.80;0.40;;;28.80;44.00;;;;;;5114696;28;20437;-83
2023/05/19 09:08:40;;;;;;;0.50;0.40;;;29.00;44.00;;;;;;5115008;28;20455;-85
2023/05/19 09:11:09;;;;;;;0.60;0.40;;;28.90;44.00;;;;;;5115481;28;20431;-85
2023/05/19 09:13:36;;;;;;;0.50;0.30;;;28.70;44.70;;;;;;5114695;28;20474;-85
2023/05/19 09:16:03;;;;;;;0.50;0.30;;;28.90;46.60;;;;;;5114697;28;20430;-83
2023/05/19 09:18:31;;;;;;;0.50;0.40;;;29.50;45.50;;;;;;5114957;28;20556;-84
2023/05/19 09:21:01;;;;;;;0.50;0.30;;;29.80;46.30;;;;;;5114666;28;20430;-85
2023/05/19 09:23:29;;;;;;;0.50;0.30;;;29.60;43.40;;;;;;5114911;28;20435;-84
2023/05/19 09:25:57;;;;;;;0.50;0.30;;;29.90;43.30;;;;;;5114170;28;20510;-85
2023/05/19 09:28:26;;;;;;;0.50;0.30;;;30.20;43.70;;;;;;5114947;28;20537;-84
2023/05/19 09:31:03;;;;;;;1.03;0.93;;;30.40;43.00;;;;;;5115789;28;20437;-83
2023/05/19 09:33:32;;;;;;;0.80;0.80;;;30.40;42.20;;;;;;5126423;28;20521;-84
2023/05/19 09:35:59;;;;;;;0.50;0.40;;;29.50;43.60;;;;;;5126386;28;20419;-85
2023/05/19 09:38:26;;;;;;;0.60;0.50;;;29.80;43.70;;;;;;5125826;28;20460;-83
2023/05/19 09:40:55;;;;;;;0.50;0.40;;;30.20;46.20;;;;;;5115195;28;20794;-82
2023/05/19 09:43:22;;;;;;;0.50;0.30;;;30.90;44.20;;;;;;5117590;28;20495;-83
2023/05/19 09:45:55;;;;;;;0.50;0.30;;;31.20;42.70;;;;;;5120441;28;20473;-84
2023/05/19 09:48:22;;;;;;;0.50;0.40;;;31.90;43.60;;;;;;5119682;28;20631;-84
2023/05/19 09:50:50;;;;;;;0.50;0.30;;;31.50;41.20;;;;;;5120107;28;20445;-84
2023/05/19 09:53:17;;;;;;;0.50;0.30;;;31.50;41.20;;;;;;5120067;28;20537;-85
2023/05/19 09:55:45;;;;;;;0.43;0.30;;;31.50;42.20;;;;;;5119833;28;20446;-85
2023/05/19 09:58:16;;;;;;;0.50;0.30;;;31.90;45.30;;;;;;5119936;28;21758;-84
2023/05/19 10:00:44;;;;;;;0.47;0.30;;;32.00;41.40;;;;;;5120049;28;20431;-84
2023/05/19 10:03:13;;;;;;;0.90;0.40;;;31.50;42.00;;;;;;5119566;28;20880;-81
2023/05/19 10:05:41;;;;;;;0.50;0.40;;;31.20;42.00;;;;;;5119264;28;20434;-86
2023/05/19 10:08:09;;;;;;;0.50;0.30;;;30.30;42.10;;;;;;5119165;28;21009;-84
2023/05/19 10:10:36;;;;;;;0.60;0.50;;;30.60;45.20;;;;;;5118746;28;20426;-84
2023/05/19 10:13:03;;;;;;;0.63;0.63;;;30.90;44.90;;;;;;5118073;28;20466;-83
2023/05/19 10:15:31;;;;;;;0.60;0.50;;;31.20;45.60;;;;;;5118331;28;20434;-80
2023/05/19 10:18:00;;;;;;;0.50;0.30;;;31.60;43.40;;;;;;5117793;28;21199;-84
2023/05/19 10:20:30;;;;;;;0.50;0.30;;;31.50;41.70;;;;;;5118417;28;20430;-84
2023/05/19 10:22:57;;;;;;;0.50;0.30;;;31.40;42.10;;;;;;5117757;28;20454;-84
2023/05/19 10:25:24;;;;;;;0.50;0.30;;;31.60;44.30;;;;;;5118065;28;20452;-84
2023/05/19 10:27:58;;;;;;;0.50;0.30;;;31.70;41.40;;;;;;5117845;28;20498;-85
2023/05/19 10:30:28;;;;;;;0.50;0.30;;;31.40;40.70;;;;;;5117705;28;20522;-82
2023/05/19 10:32:57;;;;;;;0.50;0.40;;;31.10;40.90;;;;;;5117831;28;20470;-83
2023/05/19 10:36:09;;;;;;;0.50;0.30;;;30.70;41.90;;;;;;5117314;28;20442;-84
2023/05/19 10:38:58;;;;;;;4.53;0.80;;;31.10;41.60;;;;;;5117485;28;20460;-83
2023/05/19 10:41:34;;;;;;;0.60;0.50;;;31.10;41.00;;;;;;5109836;28;20430;-82
2023/05/19 10:44:09;;;;;;;0.60;0.40;;;29.90;42.60;;;;;;5116617;28;20518;-84
2023/05/19 10:46:36;;;;;;;0.50;0.40;;;30.00;43.30;;;;;;5117103;28;20940;-83
2023/05/19 10:49:03;;;;;;;0.50;0.30;;;29.40;42.50;;;;;;5116829;28;20457;-84
2023/05/19 10:51:33;;;;;;;0.60;0.50;;;29.30;42.60;;;;;;5116622;28;20431;-84
2023/05/19 10:54:02;;;;;;;0.50;0.30;;;30.10;47.30;;;;;;5117228;28;20480;-83
2023/05/19 10:56:32;;;;;;;0.50;0.30;;;31.10;45.30;;;;;;5116501;28;20446;-83
2023/05/19 10:58:59;;;;;;;0.60;0.60;;;32.00;44.30;;;;;;5117046;28;20883;-84
2023/05/19 11:01:31;;;;;;;0.50;0.40;;;31.50;41.60;;;;;;5116642;28;20445;-85
2023/05/19 11:04:05;;;;;;;0.50;0.30;;;31.60;43.30;;;;;;5116479;28;20957;-85
2023/05/19 11:06:34;;;;;;;0.50;0.30;;;31.30;41.60;;;;;;5118674;28;20517;-79
2023/05/19 11:09:09;;;;;;;0.50;0.30;;;31.40;42.90;;;;;;5119889;28;20836;-83
2023/05/19 11:11:45;;;;;;;0.50;0.30;;;31.10;43.10;;;;;;5117730;28;20480;-81
2023/05/19 11:14:14;;;;;;;0.50;0.30;;;31.00;41.20;;;;;;5116299;28;20542;-82
2023/05/19 11:16:41;;;;;;;0.50;0.30;;;30.70;41.40;;;;;;5116570;28;20462;-82
2023/05/19 11:19:09;;;;;;;0.50;0.30;;;30.70;40.90;;;;;;5116244;28;20469;-81
2023/05/19 11:21:49;;;;;;;0.50;0.40;;;30.30;40.60;;;;;;5116992;28;20457;-83
2023/05/19 11:24:34;;;;;;;0.50;0.30;;;29.80;41.70;;;;;;5116155;28;20438;-82
2023/05/19 11:27:18;;;;;;;0.50;0.30;;;29.70;41.70;;;;;;5116156;28;20433;-82
2023/05/19 11:29:47;;;;;;;0.50;0.30;;;30.10;42.80;;;;;;5115854;28;20449;-81
2023/05/19 11:32:14;;;;;;;0.50;0.30;;;30.00;42.40;;;;;;5115968;28;20442;-82
2023/05/19 11:34:41;;;;;;;0.50;0.30;;;30.20;43.40;;;;;;5115971;28;20474;-81
2023/05/19 11:37:10;;;;;;;0.50;0.30;;;30.70;45.00;;;;;;5115544;28;20473;-83
2023/05/19 11:39:37;;;;;;;0.50;0.30;;;30.50;42.80;;;;;;5115687;28;20923;-81
2023/05/19 11:42:04;;;;;;;0.50;0.40;;;30.30;41.70;;;;;;5115886;28;20953;-83
2023/05/19 11:44:31;;;;;;;0.50;0.40;;;30.50;44.90;;;;;;5116043;28;20430;-82
2023/05/19 11:46:59;;;;;;;0.50;0.30;;;31.00;42.80;;;;;;5116006;28;20447;-81
2023/05/19 11:49:28;;;;;;;0.50;0.33;;;31.00;41.20;;;;;;5107731;28;20545;-82
2023/05/19 11:51:55;;;;;;;0.50;0.30;;;30.90;40.80;;;;;;5115717;28;21002;-81
2023/05/19 11:54:30;;;;;;;0.60;0.50;;;30.60;40.10;;;;;;5115333;28;21091;-82
2023/05/19 11:56:57;;;;;;;0.50;0.30;;;31.00;42.20;;;;;;5115824;28;20453;-82
2023/05/19 11:59:30;;;;;;;0.50;0.30;;;31.30;42.00;;;;;;5115272;28;20461;-81
2023/05/19 12:01:58;;;;;;;0.50;0.30;;;31.40;44.40;;;;;;5115640;28;20442;-82
2023/05/19 12:04:25;;;;;;;0.50;0.30;;;31.80;43.60;;;;;;5115349;28;20517;-81
2023/05/19 12:06:52;;;;;;;0.50;0.30;;;31.00;40.10;;;;;;5114572;28;20711;-82
2023/05/19 12:09:19;;;;;;;1.17;0.40;;;30.30;40.70;;;;;;5115583;28;20571;-81
2023/05/19 12:11:47;;;;;;;0.50;0.30;;;29.90;41.30;;;;;;5115342;28;20443;-84
2023/05/19 12:14:14;;;;;;;0.50;0.30;;;29.90;41.90;;;;;;5114919;28;20481;-82
2023/05/19 12:16:42;;;;;;;0.50;0.30;;;29.50;42.60;;;;;;5115427;28;20525;-81
2023/05/19 12:19:09;;;;;;;0.50;0.30;;;29.60;43.90;;;;;;5115068;28;20524;-82
2023/05/19 12:21:36;;;;;;;0.50;0.30;;;30.20;44.40;;;;;;5115254;28;20466;-80
2023/05/19 12:24:04;;;;;;;0.50;0.40;;;30.60;45.10;;;;;;5114330;28;20823;-82
2023/05/19 12:26:31;;;;;;;0.60;0.57;;;30.30;41.50;;;;;;5114962;28;20492;-82
2023/05/19 12:29:00;;;;;;;0.50;0.30;;;30.40;41.90;;;;;;5114903;28;20541;-80
2023/05/19 12:31:27;;;;;;;0.50;0.30;;;30.40;42.20;;;;;;5106698;28;20457;-80
2023/05/19 12:33:55;;;;;;;0.50;0.30;;;30.60;43.80;;;;;;5114676;28;20474;-81
2023/05/19 12:36:24;;;;;;;0.50;0.40;;;31.00;40.00;;;;;;5114961;28;20442;-82
2023/05/19 12:38:54;;;;;;;0.50;0.30;;;31.10;40.60;;;;;;5114473;28;20451;-82
2023/05/19 12:41:21;;;;;;;0.50;0.30;;;31.00;42.50;;;;;;5114101;28;20437;-82
2023/05/19 12:43:49;;;;;;;0.50;0.30;;;30.50;41.40;;;;;;5114771;28;20466;-82
2023/05/19 12:46:19;;;;;;;0.50;0.30;;;30.70;43.30;;;;;;5114395;28;20487;-82
2023/05/19 12:48:46;;;;;;;0.80;0.60;;;30.10;43.00;;;;;;5114557;28;20486;-84
2023/05/19 12:51:17;;;;;;;0.50;0.30;;;30.30;43.60;;;;;;5114352;28;20955;-82
2023/05/19 12:53:44;;;;;;;0.60;0.50;;;30.00;42.70;;;;;;5114813;28;20462;-81
2023/05/19 12:56:13;;;;;;;1.27;0.60;;;29.50;42.00;;;;;;5114601;28;20438;-81